createdAt,value
2019-02-17T00:01:23.756Z,4.06
2019-02-17T00:04:54.817Z,3.92
2019-02-17T00:08:24.874Z,3.7
2019-02-17T00:11:54.838Z,3.61
2019-02-17T00:15:24.919Z,3.62
2019-02-17T00:18:54.935Z,3.51
2019-02-17T00:22:25.002Z,3.5
2019-02-17T00:25:55.017Z,3.42
2019-02-17T00:29:25.137Z,3.4
2019-02-17T00:32:55.057Z,3.45
2019-02-17T00:36:25.161Z,3.48
2019-02-17T00:39:55.162Z,3.47
2019-02-17T00:43:25.281Z,3.54
2019-02-17T00:46:55.262Z,3.68
2019-02-17T00:50:25.474Z,3.61
2019-02-17T00:53:55.546Z,3.55
2019-02-17T00:57:25.619Z,3.51
2019-02-17T01:00:56.322Z,3.53
2019-02-17T01:04:26.447Z,3.53
2019-02-17T01:07:57.595Z,3.54
2019-02-17T01:11:27.796Z,3.74
2019-02-17T01:14:57.857Z,3.9
2019-02-17T01:18:27.949Z,4.02
2019-02-17T01:21:58.011Z,4.06
2019-02-17T01:25:28.095Z,4.1
2019-02-17T01:28:58.143Z,4.15
2019-02-17T01:32:28.265Z,4.13
2019-02-17T01:35:58.285Z,4.08
2019-02-17T01:39:28.296Z,4.01
2019-02-17T01:42:58.328Z,3.85
2019-02-17T01:46:28.380Z,3.62
2019-02-17T01:49:58.401Z,3.41
2019-02-17T01:53:28.468Z,3.27
2019-02-17T01:56:58.443Z,3.32
2019-02-17T02:00:16.255Z,3.41
2019-02-17T02:03:46.327Z,3.55
2019-02-17T02:07:16.518Z,3.66
2019-02-17T02:10:47.599Z,3.72
2019-02-17T02:14:17.691Z,3.79
2019-02-17T02:17:47.791Z,3.86
2019-02-17T02:21:17.885Z,3.8
2019-02-17T02:24:47.924Z,3.64
2019-02-17T02:28:17.966Z,3.41
2019-02-17T02:31:48.017Z,3.27
2019-02-17T02:35:18.149Z,3.47
2019-02-17T02:38:48.211Z,3.61
2019-02-17T02:42:18.382Z,3.77
2019-02-17T02:45:48.463Z,3.85
2019-02-17T02:49:18.546Z,3.82
2019-02-17T02:52:48.598Z,3.83
2019-02-17T02:56:18.848Z,3.91
2019-02-17T02:59:52.308Z,3.92
2019-02-17T03:03:22.810Z,3.87
2019-02-17T03:06:55.791Z,3.88
2019-02-17T03:10:25.914Z,3.99
2019-02-17T03:13:57.117Z,3.91
2019-02-17T03:17:27.461Z,3.86
2019-02-17T03:20:57.517Z,3.84
2019-02-17T03:24:27.608Z,3.7
2019-02-17T03:27:57.610Z,3.71
2019-02-17T03:31:27.702Z,3.76
2019-02-17T03:34:57.792Z,3.73
2019-02-17T03:38:27.765Z,3.68
2019-02-17T03:41:58.088Z,3.61
2019-02-17T03:45:28.217Z,3.67
2019-02-17T03:48:58.228Z,3.63
2019-02-17T03:52:28.229Z,3.62
2019-02-17T03:55:58.234Z,3.56
2019-02-17T03:59:28.343Z,3.55
2019-02-17T04:00:17.468Z,3.52
2019-02-17T04:03:47.684Z,3.56
2019-02-17T04:07:17.837Z,3.65
2019-02-17T04:10:47.938Z,3.68
2019-02-17T04:14:19.039Z,3.7
2019-02-17T04:17:49.142Z,3.69
2019-02-17T04:21:19.221Z,3.66
2019-02-17T04:24:49.215Z,3.63
2019-02-17T04:28:19.326Z,3.6
2019-02-17T04:31:49.309Z,3.57
2019-02-17T04:35:19.467Z,3.51
2019-02-17T04:38:49.589Z,3.42
2019-02-17T04:42:19.802Z,3.33
2019-02-17T04:45:49.820Z,3.42
2019-02-17T04:49:19.883Z,3.49
2019-02-17T04:52:50.036Z,3.45
2019-02-17T04:56:20.217Z,3.42
2019-02-17T04:59:50.237Z,3.47
2019-02-17T05:03:20.321Z,3.39
2019-02-17T05:06:50.530Z,3.31
2019-02-17T05:10:20.634Z,3.31
2019-02-17T05:13:50.684Z,3.27
2019-02-17T05:17:21.745Z,3.27
2019-02-17T05:20:51.847Z,3.23
2019-02-17T05:24:21.958Z,3.26
2019-02-17T05:27:52.060Z,3.27
2019-02-17T05:31:22.162Z,3.28
2019-02-17T05:34:52.193Z,3.26
2019-02-17T05:38:22.315Z,3.32
2019-02-17T05:41:52.436Z,3.39
2019-02-17T05:45:22.637Z,3.43
2019-02-17T05:48:52.658Z,3.55
2019-02-17T05:52:22.690Z,3.67
2019-02-17T05:55:52.721Z,3.76
2019-02-17T05:59:22.821Z,3.86
2019-02-17T06:00:18.702Z,3.88
2019-02-17T06:03:48.716Z,4.02
2019-02-17T06:07:18.680Z,4.06
2019-02-17T06:10:48.769Z,4.18
2019-02-17T06:14:18.848Z,4.35
2019-02-17T06:17:49.862Z,4.48
2019-02-17T06:21:19.976Z,4.49
2019-02-17T06:24:50.127Z,4.53
2019-02-17T06:28:20.197Z,4.55
2019-02-17T06:31:50.308Z,4.7
2019-02-17T06:35:20.400Z,4.81
2019-02-17T06:38:50.401Z,4.87
2019-02-17T06:42:20.493Z,4.95
2019-02-17T06:45:50.615Z,5.02
2019-02-17T06:49:20.656Z,5.12
2019-02-17T06:52:50.657Z,5.08
2019-02-17T06:56:40.621Z,5.03
2019-02-17T07:00:22.071Z,4.9
2019-02-17T07:03:52.124Z,4.94
2019-02-17T07:07:22.153Z,5.03
2019-02-17T07:10:52.306Z,5.16
2019-02-17T07:14:22.377Z,5.3
2019-02-17T07:17:53.390Z,5.29
2019-02-17T07:21:23.414Z,5.42
2019-02-17T07:24:53.382Z,5.54
2019-02-17T07:28:23.401Z,5.57
2019-02-17T07:31:53.575Z,5.7
2019-02-17T07:35:23.744Z,5.89
2019-02-17T07:38:53.789Z,6.17
2019-02-17T07:42:23.910Z,6.28
2019-02-17T07:45:53.963Z,6.46
2019-02-17T07:49:24.018Z,6.65
2019-02-17T07:52:54.125Z,6.89
2019-02-17T07:56:24.197Z,6.92
2019-02-17T07:59:54.230Z,7.16
2019-02-17T08:00:17.009Z,7.09
2019-02-17T08:03:47.060Z,7.23
2019-02-17T08:07:17.212Z,7.33
2019-02-17T08:10:47.154Z,7.43
2019-02-17T08:14:17.385Z,7.49
2019-02-17T08:17:47.415Z,7.69
2019-02-17T08:21:18.540Z,7.77
2019-02-17T08:24:48.564Z,7.76
2019-02-17T08:28:18.622Z,7.96
2019-02-17T08:32:14.659Z,8.19
2019-02-17T10:00:18.207Z,9.96
2019-02-17T10:03:48.282Z,10.13
2019-02-17T10:07:18.371Z,10.26
2019-02-17T10:10:48.493Z,10.47
2019-02-17T10:14:18.535Z,10.73
2019-02-17T10:17:48.576Z,10.94
2019-02-17T10:21:18.718Z,11.16
2019-02-17T10:24:48.791Z,11.48
2019-02-17T10:28:18.801Z,11.72
2019-02-17T10:31:48.837Z,11.64
2019-02-17T10:35:18.936Z,11.7
2019-02-17T10:38:49.017Z,11.96
2019-02-17T10:42:19.162Z,12.16
2019-02-17T10:45:49.221Z,12.34
2019-02-17T10:49:19.467Z,12.67
2019-02-17T10:52:49.534Z,13.13
2019-02-17T10:56:19.717Z,13.37
2019-02-17T10:59:49.878Z,13.66
2019-02-17T11:03:20.980Z,14.01
2019-02-17T11:06:51.173Z,14.32
2019-02-17T11:10:21.364Z,14.58
2019-02-17T11:13:51.396Z,14.73
2019-02-17T11:17:21.618Z,14.91
2019-02-17T11:20:51.591Z,14.83
2019-02-17T11:24:21.692Z,14.93
2019-02-17T11:27:51.814Z,15.09
2019-02-17T11:31:21.946Z,14.91
2019-02-17T11:34:52.079Z,14.85
2019-02-17T11:38:22.184Z,14.88
2019-02-17T11:41:52.232Z,15.15
2019-02-17T11:45:22.344Z,15.54
2019-02-17T11:48:52.386Z,15.52
2019-02-17T11:52:22.498Z,15.54
2019-02-17T11:55:52.550Z,15.73
2019-02-17T11:59:22.644Z,15.58
2019-02-17T12:00:18.365Z,15.7
2019-02-17T12:03:49.476Z,15.76
2019-02-17T12:07:19.557Z,15.83
2019-02-17T12:10:49.659Z,16.17
2019-02-17T12:14:19.841Z,16.49
2019-02-17T12:17:49.923Z,16.36
2019-02-17T12:21:29.365Z,16.27
2019-02-17T12:25:05.138Z,16.5
2019-02-17T12:28:42.489Z,16.72
2019-02-17T12:32:12.582Z,16.7
2019-02-17T12:35:42.851Z,16.46
2019-02-17T12:39:15.095Z,16.38
2019-02-17T12:42:45.348Z,16.47
2019-02-17T12:46:15.443Z,16.44
2019-02-17T12:49:45.432Z,16.63
2019-02-17T12:53:15.394Z,16.92
2019-02-17T12:56:45.498Z,16.92
2019-02-17T13:00:16.343Z,16.71
2019-02-17T13:03:46.430Z,16.7
2019-02-17T13:07:17.462Z,16.97
2019-02-17T13:10:47.645Z,16.92
2019-02-17T13:14:17.706Z,16.9
2019-02-17T13:17:47.808Z,16.77
2019-02-17T13:21:17.791Z,16.78
2019-02-17T13:24:47.919Z,16.95
2019-02-17T13:28:17.925Z,16.76
2019-02-17T13:31:48.157Z,16.78
2019-02-17T13:35:18.169Z,17.04
2019-02-17T13:38:48.261Z,17.26
2019-02-17T13:42:18.323Z,17.05
2019-02-17T13:45:48.406Z,16.99
2019-02-17T13:49:18.638Z,16.97
2019-02-17T13:52:48.770Z,16.8
2019-02-17T13:56:18.842Z,16.8
2019-02-17T13:59:48.924Z,17
2019-02-17T14:00:16.696Z,16.99
2019-02-17T14:03:49.259Z,16.76
2019-02-17T14:07:20.533Z,16.46
2019-02-17T14:10:50.560Z,16.32
2019-02-17T14:14:20.537Z,16.2
2019-02-17T14:17:50.705Z,16.2
2019-02-17T14:21:20.867Z,15.98
2019-02-17T14:24:50.959Z,15.95
2019-02-17T14:28:20.961Z,15.86
2019-02-17T14:31:50.973Z,15.77
2019-02-17T14:35:21.105Z,15.63
2019-02-17T14:38:51.157Z,15.44
2019-02-17T14:42:21.222Z,15.2
2019-02-17T14:45:51.231Z,14.96
2019-02-17T14:49:21.284Z,14.72
2019-02-17T14:52:51.406Z,14.42
2019-02-17T14:56:21.489Z,14.38
2019-02-17T14:59:51.648Z,14.25
2019-02-17T15:03:21.772Z,13.87
2019-02-17T15:06:51.915Z,13.77
2019-02-17T15:10:22.900Z,13.64
2019-02-17T15:13:52.958Z,13.29
2019-02-17T15:17:23.090Z,13.09
2019-02-17T15:20:53.242Z,12.88
2019-02-17T15:24:23.344Z,12.59
2019-02-17T15:27:53.515Z,12.12
2019-02-17T15:31:23.577Z,11.89
2019-02-17T15:34:53.673Z,11.51
2019-02-17T15:38:23.801Z,11.02
2019-02-17T15:41:53.853Z,10.76
2019-02-17T15:45:23.966Z,10.49
2019-02-17T15:48:54.086Z,10.28
2019-02-17T15:52:24.301Z,10.11
2019-02-17T15:55:54.292Z,9.95
2019-02-17T15:59:24.442Z,9.8
2019-02-17T16:00:16.722Z,9.74
2019-02-17T16:03:46.755Z,9.56
2019-02-17T16:07:16.986Z,9.41
2019-02-17T16:10:47.971Z,9.23
2019-02-17T16:14:17.999Z,9.01
2019-02-17T16:17:48.115Z,8.79
2019-02-17T16:21:18.181Z,8.54
2019-02-17T16:24:48.365Z,8.29
2019-02-17T16:28:18.607Z,8.16
2019-02-17T16:31:48.648Z,7.96
2019-02-17T16:35:18.820Z,7.97
2019-02-17T16:38:48.849Z,7.93
2019-02-17T16:42:18.943Z,7.91
2019-02-17T16:45:48.955Z,7.99
2019-02-17T16:49:19.037Z,8.03
2019-02-17T16:52:49.024Z,8.03
2019-02-17T16:56:20.725Z,7.94
2019-02-17T16:59:50.872Z,7.91
2019-02-17T17:03:20.976Z,7.81
2019-02-17T17:06:50.945Z,7.74
2019-02-17T17:10:21.218Z,7.69
2019-02-17T17:13:52.189Z,7.6
2019-02-17T17:17:22.260Z,7.56
2019-02-17T17:20:52.402Z,7.56
2019-02-17T17:24:22.533Z,7.56
2019-02-17T17:27:52.625Z,7.45
2019-02-17T17:31:22.717Z,7.42
2019-02-17T17:34:58.579Z,7.35
2019-02-17T17:38:29.481Z,7.26
2019-02-17T17:41:59.422Z,7.24
2019-02-17T17:45:29.494Z,7.22
2019-02-17T17:48:59.445Z,7.19
2019-02-17T17:52:29.473Z,7.2
2019-02-17T17:55:59.521Z,7.22
2019-02-17T17:59:29.580Z,7.21
2019-02-17T18:00:18.062Z,7.2
2019-02-17T18:03:48.202Z,7.2
2019-02-17T18:07:18.385Z,7.18
2019-02-17T18:10:48.501Z,7.15
2019-02-17T18:14:19.527Z,7.14
2019-02-17T18:17:54.281Z,7.14
2019-02-17T18:21:25.141Z,7.13
2019-02-17T18:24:55.143Z,7.06
2019-02-17T18:28:25.234Z,7.03
2019-02-17T18:31:55.336Z,7.04
2019-02-17T18:35:25.421Z,7.08
2019-02-17T18:38:55.509Z,7.09
2019-02-17T18:42:25.671Z,7.08
2019-02-17T18:45:55.742Z,7.05
2019-02-17T18:49:25.764Z,7
2019-02-17T18:52:55.845Z,6.95
2019-02-17T18:56:25.997Z,6.95
2019-02-17T18:59:56.109Z,6.96
2019-02-17T19:03:26.190Z,6.86
2019-02-17T19:06:56.192Z,6.79
2019-02-17T19:10:26.433Z,6.84
2019-02-17T19:13:56.481Z,6.97
2019-02-17T19:17:27.497Z,7.08
2019-02-17T19:20:57.481Z,7.1
2019-02-17T19:24:27.540Z,7.08
2019-02-17T19:27:57.621Z,7.1
2019-02-17T19:31:27.757Z,7.1
2019-02-17T19:34:57.765Z,7.03
2019-02-17T19:38:27.877Z,7.02
2019-02-17T19:41:58.048Z,7.01
2019-02-17T19:45:28.011Z,6.94
2019-02-17T19:48:58.052Z,6.93
2019-02-17T19:52:28.173Z,6.95
2019-02-17T19:55:58.245Z,6.93
2019-02-17T19:59:28.297Z,6.94
2019-02-17T20:00:16.929Z,6.93
2019-02-17T20:04:00.778Z,6.91
2019-02-17T20:07:30.840Z,6.91
2019-02-17T20:11:01.053Z,6.83
2019-02-17T20:14:31.781Z,6.78
2019-02-17T20:18:02.971Z,6.7
2019-02-17T20:21:33.247Z,6.6
2019-02-17T20:25:03.493Z,6.59
2019-02-17T20:28:43.043Z,6.6
2019-02-17T20:32:13.882Z,6.62
2019-02-17T20:35:43.905Z,6.45
2019-02-17T20:39:14.026Z,6.44
2019-02-17T20:42:44.098Z,6.34
2019-02-17T20:46:14.118Z,6.36
2019-02-17T20:49:44.240Z,6.4
2019-02-17T20:53:14.224Z,6.49
2019-02-17T20:56:44.323Z,6.59
2019-02-17T21:00:14.513Z,6.65
2019-02-17T21:03:44.616Z,6.61
2019-02-17T21:07:16.433Z,6.43
2019-02-17T21:10:46.639Z,6.49
2019-02-17T21:14:16.592Z,6.54
2019-02-17T21:17:46.770Z,6.54
2019-02-17T21:21:17.755Z,6.55
2019-02-17T21:24:47.736Z,6.51
2019-02-17T21:28:17.778Z,6.43
2019-02-17T21:31:47.890Z,6.49
2019-02-17T21:35:17.861Z,6.51
2019-02-17T21:38:47.932Z,6.51
2019-02-17T21:42:17.955Z,6.55
2019-02-17T21:45:48.044Z,6.55
2019-02-17T21:49:18.009Z,6.54
2019-02-17T21:52:48.220Z,6.55
2019-02-17T21:56:18.331Z,6.55
2019-02-17T21:59:48.417Z,6.56
2019-02-17T22:00:18.243Z,6.52
2019-02-17T22:03:48.246Z,6.53
2019-02-17T22:07:18.287Z,6.51
2019-02-17T22:10:48.358Z,6.49
2019-02-17T22:14:18.439Z,6.46
2019-02-17T22:17:48.461Z,6.44
2019-02-17T22:21:19.534Z,6.45
2019-02-17T22:24:49.584Z,6.46
2019-02-17T22:28:19.655Z,6.43
2019-02-17T22:31:49.757Z,6.36
2019-02-17T22:35:19.819Z,6.31
2019-02-17T22:38:49.934Z,6.32
2019-02-17T22:42:19.972Z,6.34
2019-02-17T22:45:50.064Z,6.41
2019-02-17T22:49:20.105Z,6.48
2019-02-17T22:52:50.177Z,6.5
2019-02-17T22:56:20.249Z,6.57
2019-02-17T22:59:50.290Z,6.62
2019-02-17T23:03:20.392Z,6.58
2019-02-17T23:06:54.063Z,6.46
2019-02-17T23:10:24.677Z,6.47
2019-02-17T23:13:54.796Z,6.54
2019-02-17T23:17:24.920Z,6.58
2019-02-17T23:20:54.989Z,6.57
2019-02-17T23:24:26.726Z,6.54
2019-02-17T23:27:56.783Z,6.49
2019-02-17T23:31:26.897Z,6.47
2019-02-17T23:34:56.961Z,6.37
2019-02-17T23:38:26.987Z,6.41
2019-02-17T23:41:56.970Z,6.4
2019-02-17T23:45:27.163Z,6.3
2019-02-17T23:48:57.243Z,6.35
2019-02-17T23:52:27.281Z,6.34
2019-02-17T23:55:57.427Z,6.29
2019-02-17T23:59:27.518Z,6.25
